Time,TemperatureF,DewpointF,PressureIn,WindDirection,WindDirectionDegrees,WindSpeedMPH,WindSpeedGustMPH,Humidity,HourlyPrecipIn,Conditions,Clouds,dailyrainin,SoftwareType,DateUTC
2013-01-31 00:01:00,38.0,24.0,29.80,SSW,213,0.0,2.0,57,0.01,,,0.07,,2013-01-31 06:01:00,
2013-01-31 00:10:00,38.0,24.0,29.80,SSW,213,0.0,2.0,57,0.01,,,0.07,,2013-01-31 06:10:00,
2013-01-31 08:02:00,31.0,24.0,29.83,SSE,159,0.0,0.0,75,0.00,,,0.04,,2013-01-31 14:02:00,
2013-01-31 08:11:00,31.0,24.0,29.83,SSE,159,0.0,0.0,75,0.00,,,0.04,,2013-01-31 14:11:00,
2013-01-31 08:22:00,32.0,26.0,29.85,SSE,157,2.0,4.0,77,0.00,,,0.04,,2013-01-31 14:22:00,
2013-01-31 08:32:00,33.0,26.0,29.85,ESE,119,3.0,5.0,74,0.00,,,0.04,,2013-01-31 14:32:00,
2013-01-31 08:42:00,33.0,26.0,29.85,ESE,119,3.0,5.0,74,0.00,,,0.04,,2013-01-31 14:42:00,
2013-01-31 08:52:00,35.0,26.0,29.85,SE,136,3.0,6.0,70,0.00,,,0.04,,2013-01-31 14:52:00,
2013-01-31 09:03:00,37.0,27.0,29.85,South,173,1.0,5.0,66,0.00,,,0.04,,2013-01-31 15:03:00,
2013-01-31 09:12:00,37.0,27.0,29.85,South,173,1.0,5.0,66,0.00,,,0.04,,2013-01-31 15:12:00,
2013-01-31 09:22:00,40.0,27.0,29.85,South,189,3.0,7.0,59,0.00,,,0.03,,2013-01-31 15:22:00,
2013-01-31 09:32:00,42.0,27.0,29.86,SE,132,1.0,6.0,56,0.00,,,0.03,,2013-01-31 15:32:00,
2013-01-31 09:42:00,42.0,27.0,29.86,SE,132,1.0,6.0,56,0.00,,,0.03,,2013-01-31 15:42:00,
2013-01-31 09:52:00,44.0,28.0,29.86,SSW,192,3.0,8.0,53,0.01,,,0.04,,2013-01-31 15:52:00,
2013-01-31 10:03:00,46.0,28.0,29.86,SSW,204,3.0,7.0,50,0.01,,,0.04,,2013-01-31 16:03:00,
2013-01-31 10:12:00,46.0,28.0,29.86,SSW,204,3.0,7.0,50,0.01,,,0.04,,2013-01-31 16:12:00,
2013-01-31 10:22:00,46.0,28.0,29.86,SSW,204,3.0,7.0,50,0.01,,,0.04,,2013-01-31 16:22:00,
2013-01-31 10:33:00,52.0,28.0,29.86,SSE,167,5.0,9.0,39,0.01,,,0.04,,2013-01-31 16:33:00,
2013-01-31 10:42:00,52.0,28.0,29.86,SSE,167,5.0,9.0,39,0.01,,,0.04,,2013-01-31 16:42:00,
2013-01-31 10:52:00,55.0,29.0,29.87,South,173,2.0,7.0,36,0.00,,,0.04,,2013-01-31 16:52:00,
2013-01-31 11:02:00,56.0,26.0,29.87,South,171,4.0,11.0,31,0.00,,,0.04,,2013-01-31 17:02:00,
2013-01-31 11:12:00,56.0,26.0,29.87,South,171,4.0,11.0,31,0.00,,,0.04,,2013-01-31 17:12:00,
2013-01-31 11:23:00,56.0,26.0,29.87,South,171,4.0,11.0,31,0.00,,,0.04,,2013-01-31 17:23:00,
2013-01-31 11:32:00,59.0,26.0,29.86,SW,219,5.0,12.0,28,0.00,,,0.04,,2013-01-31 17:32:00,
2013-01-31 11:43:00,59.0,26.0,29.86,SW,219,5.0,12.0,28,0.00,,,0.04,,2013-01-31 17:43:00,
2013-01-31 11:53:00,60.0,28.0,29.86,SSE,148,3.0,11.0,29,0.00,,,0.04,,2013-01-31 17:53:00,
2013-01-31 12:03:00,61.0,27.0,29.85,SW,216,4.0,13.0,27,0.00,,,0.04,,2013-01-31 18:03:00,
2013-01-31 12:12:00,61.0,25.0,29.85,SW,236,7.0,15.0,25,0.00,,,0.04,,2013-01-31 18:12:00,
2013-01-31 12:22:00,61.0,25.0,29.85,SW,236,7.0,15.0,25,0.00,,,0.04,,2013-01-31 18:22:00,
2013-01-31 12:32:00,62.0,26.0,29.85,SSW,198,5.0,13.0,25,0.00,,,0.04,,2013-01-31 18:32:00,
2013-01-31 12:43:00,62.0,26.0,29.85,SSW,198,5.0,13.0,25,0.00,,,0.04,,2013-01-31 18:43:00,
2013-01-31 12:52:00,63.0,26.0,29.84,SSW,192,5.0,14.0,24,0.00,,,0.04,,2013-01-31 18:52:00,
2013-01-31 13:02:00,64.0,25.0,29.83,SSW,209,6.0,12.0,23,0.00,,,0.04,,2013-01-31 19:02:00,
2013-01-31 13:12:00,64.0,25.0,29.83,SSW,209,6.0,12.0,23,0.00,,,0.04,,2013-01-31 19:12:00,
2013-01-31 13:22:00,65.0,25.0,29.82,SW,217,4.0,10.0,22,0.00,,,0.03,,2013-01-31 19:22:00,
2013-01-31 13:32:00,66.0,26.0,29.80,South,186,6.0,13.0,22,0.00,,,0.03,,2013-01-31 19:32:00,
2013-01-31 13:42:00,66.0,26.0,29.80,South,186,6.0,13.0,22,0.00,,,0.03,,2013-01-31 19:42:00,
2013-01-31 13:52:00,66.0,26.0,29.80,South,186,6.0,13.0,22,0.00,,,0.03,,2013-01-31 19:52:00,
2013-01-31 14:02:00,67.0,25.0,29.78,SW,227,5.0,14.0,20,0.00,,,0.03,,2013-01-31 20:02:00,
2013-01-31 14:11:00,67.0,25.0,29.78,SW,227,5.0,14.0,20,0.00,,,0.03,,2013-01-31 20:11:00,
2013-01-31 14:22:00,67.0,23.0,29.78,SSW,207,9.0,16.0,19,0.00,,,0.03,,2013-01-31 20:22:00,
2013-01-31 14:31:00,68.0,24.0,29.78,South,184,6.0,16.0,19,0.00,,,0.03,,2013-01-31 20:31:00,
2013-01-31 14:42:00,68.0,24.0,29.78,South,184,6.0,16.0,19,0.00,,,0.03,,2013-01-31 20:42:00,
2013-01-31 14:52:00,68.0,24.0,29.78,SW,222,8.0,19.0,19,0.00,,,0.03,,2013-01-31 20:52:00,
2013-01-31 15:02:00,68.0,25.0,29.77,SW,222,8.0,16.0,20,0.00,,,0.03,,2013-01-31 21:02:00,
2013-01-31 15:12:00,68.0,25.0,29.77,SW,222,8.0,16.0,20,0.00,,,0.03,,2013-01-31 21:12:00,
2013-01-31 15:22:00,68.0,25.0,29.77,SSW,211,7.0,15.0,20,0.00,,,0.03,,2013-01-31 21:22:00,
2013-01-31 15:32:00,68.0,25.0,29.77,SW,216,11.0,18.0,20,0.00,,,0.03,,2013-01-31 21:32:00,
2013-01-31 15:42:00,68.0,25.0,29.77,SW,216,11.0,18.0,20,0.00,,,0.03,,2013-01-31 21:42:00,
2013-01-31 15:52:00,68.0,24.0,29.77,SW,221,5.0,16.0,19,0.00,,,0.03,,2013-01-31 21:52:00,
2013-01-31 16:02:00,67.0,23.0,29.76,South,180,8.0,17.0,19,0.00,,,0.03,,2013-01-31 22:02:00,
2013-01-31 16:11:00,67.0,23.0,29.76,South,180,8.0,17.0,19,0.00,,,0.03,,2013-01-31 22:11:00,
2013-01-31 16:22:00,68.0,24.0,29.76,SW,221,5.0,14.0,19,0.00,,,0.02,,2013-01-31 22:22:00,
2013-01-31 16:32:00,68.0,24.0,29.76,South,176,4.0,14.0,19,0.00,,,0.02,,2013-01-31 22:32:00,
2013-01-31 16:42:00,68.0,24.0,29.76,South,176,4.0,14.0,19,0.00,,,0.02,,2013-01-31 22:42:00,
2013-01-31 16:52:00,67.0,23.0,29.76,SSW,194,5.0,12.0,19,0.00,,,0.02,,2013-01-31 22:52:00,
2013-01-31 17:02:00,67.0,25.0,29.76,SW,234,5.0,13.0,20,0.00,,,0.02,,2013-01-31 23:02:00,
2013-01-31 17:12:00,67.0,25.0,29.76,SW,234,5.0,13.0,20,0.00,,,0.02,,2013-01-31 23:12:00,
2013-01-31 17:22:00,67.0,25.0,29.78,WSW,242,2.0,7.0,20,0.00,,,0.02,,2013-01-31 23:22:00,
2013-01-31 17:32:00,67.0,25.0,29.79,WSW,248,4.0,14.0,20,0.00,,,0.02,,2013-01-31 23:32:00,
2013-01-31 17:42:00,67.0,25.0,29.79,WSW,248,4.0,14.0,20,0.00,,,0.02,,2013-01-31 23:42:00,
2013-01-31 17:52:00,67.0,25.0,29.79,WSW,248,4.0,14.0,20,0.00,,,0.02,,2013-01-31 23:52:00,
2013-01-31 18:01:00,65.0,24.0,29.80,SSW,205,4.0,9.0,21,0.00,,,0.02,,2013-02-01 00:01:00,
2013-01-31 18:11:00,65.0,24.0,29.80,SSW,205,4.0,9.0,21,0.00,,,0.02,,2013-02-01 00:11:00,
2013-01-31 18:22:00,64.0,24.0,29.80,SW,230,1.0,3.0,22,0.00,,,0.02,,2013-02-01 00:22:00,
2013-01-31 18:32:00,63.0,26.0,29.80,SW,230,0.0,2.0,24,0.00,,,0.02,,2013-02-01 00:32:00,
2013-01-31 18:42:00,63.0,26.0,29.80,SW,230,0.0,2.0,24,0.00,,,0.02,,2013-02-01 00:42:00,
2013-01-31 18:52:00,61.0,26.0,29.81,SW,230,0.0,1.0,26,0.00,,,0.02,,2013-02-01 00:52:00,
2013-01-31 19:01:00,60.0,26.0,29.82,SW,230,0.0,1.0,27,0.00,,,0.02,,2013-02-01 01:01:00,
2013-01-31 19:11:00,58.0,27.0,29.82,SW,230,0.0,1.0,30,0.00,,,0.02,,2013-02-01 01:11:00,
2013-01-31 19:21:00,58.0,27.0,29.82,SW,230,0.0,1.0,30,0.00,,,0.02,,2013-02-01 01:21:00,
2013-01-31 19:32:00,57.0,27.0,29.83,SW,230,0.0,0.0,32,0.00,,,0.02,,2013-02-01 01:32:00,
2013-01-31 19:42:00,57.0,27.0,29.83,SW,230,0.0,0.0,32,0.00,,,0.02,,2013-02-01 01:42:00,
2013-01-31 19:52:00,56.0,27.0,29.84,SW,234,0.0,2.0,32,0.00,,,0.02,,2013-02-01 01:52:00,
2013-01-31 20:01:00,56.0,27.0,29.85,WSW,254,0.0,2.0,33,0.00,,,0.02,,2013-02-01 02:01:00,
2013-01-31 20:11:00,56.0,27.0,29.85,WSW,254,0.0,2.0,33,0.00,,,0.02,,2013-02-01 02:11:00,
2013-01-31 20:21:00,55.0,28.0,29.86,WSW,254,0.0,1.0,35,0.00,,,0.02,,2013-02-01 02:21:00,
2013-01-31 20:31:00,55.0,27.0,29.87,WSW,254,0.0,2.0,34,0.00,,,0.02,,2013-02-01 02:31:00,
2013-01-31 20:42:00,55.0,27.0,29.87,WSW,254,0.0,2.0,34,0.00,,,0.02,,2013-02-01 02:42:00,
2013-01-31 20:52:00,57.0,27.0,29.88,NW,315,1.0,3.0,31,0.00,,,0.02,,2013-02-01 02:52:00,
2013-01-31 21:02:00,58.0,26.0,29.88,NNW,339,3.0,7.0,29,0.00,,,0.02,,2013-02-01 03:02:00,
2013-01-31 21:12:00,58.0,26.0,29.88,NNW,339,3.0,7.0,29,0.00,,,0.02,,2013-02-01 03:12:00,
2013-01-31 21:21:00,58.0,27.0,29.89,NNW,342,3.0,7.0,30,0.00,,,0.02,,2013-02-01 03:21:00,
2013-01-31 21:32:00,58.0,28.0,29.89,North,350,4.0,10.0,31,0.00,,,0.02,,2013-02-01 03:32:00,
2013-01-31 21:42:00,58.0,28.0,29.89,North,350,4.0,10.0,31,0.00,,,0.02,,2013-02-01 03:42:00,
2013-01-31 21:52:00,57.0,27.0,29.89,NE,51,2.0,11.0,32,0.00,,,0.02,,2013-02-01 03:52:00,
2013-01-31 22:02:00,56.0,28.0,29.91,NNE,24,5.0,9.0,34,0.01,,,0.03,,2013-02-01 04:02:00,
2013-01-31 22:11:00,56.0,28.0,29.91,NNE,24,5.0,9.0,34,0.01,,,0.03,,2013-02-01 04:11:00,
2013-01-31 22:21:00,54.0,30.0,29.92,NNW,338,9.0,17.0,40,0.01,,,0.03,,2013-02-01 04:21:00,
2013-01-31 22:32:00,51.0,31.0,29.93,North,350,7.0,13.0,46,0.01,,,0.03,,2013-02-01 04:32:00,
2013-01-31 22:41:00,51.0,31.0,29.93,North,350,7.0,13.0,46,0.01,,,0.03,,2013-02-01 04:41:00,
2013-01-31 22:52:00,50.0,31.0,29.94,NNE,23,6.0,13.0,47,0.01,,,0.03,,2013-02-01 04:52:00,
2013-01-31 23:03:00,49.0,30.0,29.96,NE,35,7.0,14.0,47,0.00,,,0.03,,2013-02-01 05:03:00,
2013-01-31 23:11:00,49.0,30.0,29.96,NE,35,7.0,14.0,47,0.00,,,0.03,,2013-02-01 05:11:00,
2013-01-31 23:22:00,48.0,29.0,29.96,NE,34,5.0,14.0,48,0.00,,,0.02,,2013-02-01 05:22:00,
2013-01-31 23:32:00,47.0,29.0,29.97,North,355,4.0,12.0,50,0.00,,,0.02,,2013-02-01 05:32:00,
2013-01-31 23:42:00,47.0,29.0,29.97,North,355,4.0,12.0,50,0.00,,,0.02,,2013-02-01 05:42:00,
2013-01-31 23:52:00,46.0,29.0,29.98,NNE,28,7.0,14.0,51,0.00,,,0.02,,2013-02-01 05:52:00,